createdAt,value
2019-03-31T00:00:37.980Z,91.66
2019-03-31T00:04:41.718Z,91.63
2019-03-31T00:08:44.964Z,91.74
2019-03-31T00:12:48.596Z,91.80
2019-03-31T00:16:52.687Z,91.81
2019-03-31T00:20:56.179Z,91.77
2019-03-31T00:24:59.741Z,91.72
2019-03-31T00:29:03.159Z,91.73
2019-03-31T00:33:06.509Z,91.83
2019-03-31T00:37:09.861Z,91.84
2019-03-31T00:41:13.276Z,91.83
2019-03-31T00:45:16.916Z,91.86
2019-03-31T00:49:20.153Z,92.00
2019-03-31T00:53:23.567Z,92.16
2019-03-31T00:57:26.821Z,92.19
2019-03-31T01:01:37.222Z,92.20
2019-03-31T01:05:44.757Z,92.68
2019-03-31T01:09:48.394Z,92.54
2019-03-31T01:13:51.759Z,92.42
2019-03-31T01:17:55.483Z,92.31
2019-03-31T01:21:58.922Z,92.34
2019-03-31T01:26:02.364Z,92.47
2019-03-31T01:30:06.477Z,92.36
2019-03-31T01:34:10.935Z,92.37
2019-03-31T01:38:15.885Z,92.44
2019-03-31T01:42:19.737Z,92.42
2019-03-31T01:46:24.595Z,92.47
2019-03-31T01:50:28.410Z,92.46
2019-03-31T01:54:31.635Z,92.33
2019-03-31T01:58:35.465Z,92.10
2019-03-31T02:02:38.782Z,92.28
2019-03-31T02:06:42.093Z,91.75
2019-03-31T02:10:47.166Z,91.68
2019-03-31T02:14:50.614Z,91.64
2019-03-31T02:18:54.220Z,91.63
2019-03-31T02:22:57.967Z,91.53
2019-03-31T02:27:02.064Z,91.61
2019-03-31T02:31:05.514Z,91.23
2019-03-31T02:35:09.694Z,91.14
2019-03-31T02:39:13.197Z,91.23
2019-03-31T02:43:16.548Z,91.12
2019-03-31T02:47:19.901Z,91.04
2019-03-31T02:51:23.377Z,91.23
2019-03-31T02:55:26.978Z,91.20
2019-03-31T02:59:32.927Z,91.37
2019-03-31T03:03:40.137Z,91.39
2019-03-31T03:07:46.314Z,91.37
2019-03-31T03:11:51.807Z,91.37
2019-03-31T03:16:19.782Z,91.32
2019-03-31T03:20:23.571Z,91.61
2019-03-31T03:24:26.990Z,91.47
2019-03-31T03:28:30.334Z,91.49
2019-03-31T03:32:33.729Z,91.52
2019-03-31T03:36:37.113Z,91.57
2019-03-31T03:40:40.383Z,91.74
2019-03-31T03:44:43.732Z,91.76
2019-03-31T03:48:47.112Z,91.76
2019-03-31T03:52:50.430Z,91.85
2019-03-31T03:56:53.728Z,91.86
2019-03-31T04:00:57.076Z,91.91
2019-03-31T04:05:00.611Z,91.84
2019-03-31T04:09:05.809Z,91.85
2019-03-31T04:13:10.883Z,91.87
2019-03-31T04:17:14.204Z,91.66
2019-03-31T04:21:17.734Z,91.68
2019-03-31T04:25:21.175Z,91.77
2019-03-31T04:29:24.442Z,91.76
2019-03-31T04:33:27.981Z,91.64
2019-03-31T04:37:31.233Z,91.60
2019-03-31T04:41:34.577Z,91.65
2019-03-31T04:45:37.845Z,91.68
2019-03-31T04:49:41.185Z,91.66
2019-03-31T04:53:44.621Z,91.61
2019-03-31T04:57:47.960Z,91.60
2019-03-31T05:01:51.247Z,91.50
2019-03-31T05:05:54.613Z,91.65
2019-03-31T05:09:58.032Z,91.56
2019-03-31T05:14:01.706Z,91.56
2019-03-31T05:18:05.265Z,91.54
2019-03-31T05:22:08.619Z,91.55
2019-03-31T05:26:11.864Z,91.42
2019-03-31T05:30:15.429Z,91.36
2019-03-31T05:34:19.649Z,91.16
2019-03-31T05:38:23.374Z,91.19
2019-03-31T05:42:26.623Z,91.03
2019-03-31T05:46:29.924Z,91.07
2019-03-31T05:50:33.165Z,91.16
2019-03-31T05:54:36.737Z,91.11
2019-03-31T05:58:40.268Z,90.98
2019-03-31T06:02:43.659Z,90.81
2019-03-31T06:06:46.991Z,90.88
2019-03-31T06:10:50.512Z,90.90
2019-03-31T06:14:53.772Z,90.66
2019-03-31T06:18:57.718Z,90.51
2019-03-31T06:23:01.155Z,90.46
2019-03-31T06:27:04.519Z,90.54
2019-03-31T06:31:09.210Z,90.24
2019-03-31T06:35:19.557Z,90.13
2019-03-31T06:39:27.465Z,89.85
2019-03-31T06:43:34.819Z,89.28
2019-03-31T06:47:49.072Z,89.66
2019-03-31T06:52:00.217Z,89.39
2019-03-31T06:56:10.424Z,89.38
2019-03-31T07:00:15.614Z,89.35
2019-03-31T07:04:20.196Z,89.29
2019-03-31T07:08:23.634Z,89.57
2019-03-31T07:12:26.978Z,89.56
2019-03-31T07:16:30.386Z,89.24
2019-03-31T07:20:33.966Z,89.21
2019-03-31T07:24:38.539Z,89.21
2019-03-31T07:28:42.423Z,89.37
2019-03-31T07:32:46.222Z,88.93
2019-03-31T07:36:49.565Z,88.54
2019-03-31T07:40:53.360Z,88.82
2019-03-31T07:44:56.729Z,88.93
2019-03-31T07:49:00.166Z,88.73
2019-03-31T07:53:03.518Z,89.09
2019-03-31T07:57:07.351Z,89.00
2019-03-31T08:01:10.983Z,89.10
2019-03-31T08:05:14.654Z,88.60
2019-03-31T08:09:18.178Z,88.26
2019-03-31T08:13:21.624Z,88.57
2019-03-31T08:17:24.956Z,88.10
2019-03-31T08:21:28.491Z,88.26
2019-03-31T08:25:31.806Z,87.14
2019-03-31T08:29:36.617Z,87.56
2019-03-31T08:33:39.996Z,86.34
2019-03-31T08:37:43.307Z,87.38
2019-03-31T08:41:46.597Z,87.23
2019-03-31T08:45:49.987Z,87.55
2019-03-31T08:49:54.394Z,86.88
2019-03-31T08:53:57.729Z,86.90
2019-03-31T08:58:01.132Z,86.95
2019-03-31T09:02:21.875Z,87.03
2019-03-31T09:06:25.160Z,86.97
2019-03-31T09:10:28.543Z,86.73
2019-03-31T09:14:31.929Z,86.67
2019-03-31T09:18:35.344Z,86.62
2019-03-31T09:22:39.157Z,86.28
2019-03-31T09:26:42.490Z,85.69
2019-03-31T09:30:45.751Z,85.22
2019-03-31T09:34:49.334Z,85.29
2019-03-31T09:38:52.592Z,85.70
2019-03-31T09:42:55.916Z,85.47
2019-03-31T09:46:59.457Z,85.18
2019-03-31T09:51:02.894Z,83.69
2019-03-31T09:55:06.573Z,84.76
2019-03-31T09:59:10.024Z,84.11
2019-03-31T10:03:13.287Z,85.15
2019-03-31T10:07:17.202Z,85.37
2019-03-31T10:11:20.590Z,85.37
2019-03-31T10:15:24.106Z,86.13
2019-03-31T10:19:28.788Z,85.44
2019-03-31T10:23:33.791Z,86.10
2019-03-31T10:27:37.033Z,86.00
2019-03-31T10:31:40.708Z,85.61
2019-03-31T10:35:43.978Z,86.85
2019-03-31T10:39:47.295Z,86.33
2019-03-31T10:43:50.555Z,86.70
2019-03-31T10:47:53.955Z,87.13
2019-03-31T10:51:57.254Z,86.78
2019-03-31T10:56:02.149Z,86.93
2019-03-31T11:00:06.241Z,87.20
2019-03-31T11:04:09.561Z,87.14
2019-03-31T11:08:12.838Z,86.87
2019-03-31T11:12:16.292Z,86.24
2019-03-31T11:16:19.563Z,86.95
2019-03-31T11:20:23.023Z,87.23
2019-03-31T11:24:26.340Z,87.05
2019-03-31T11:28:29.909Z,86.38
2019-03-31T11:32:33.186Z,86.50
2019-03-31T11:36:36.513Z,87.03
2019-03-31T11:40:39.824Z,86.76
2019-03-31T11:44:43.443Z,86.47
2019-03-31T11:48:47.010Z,85.69
2019-03-31T11:52:50.363Z,85.29
2019-03-31T11:56:54.882Z,85.26
2019-03-31T12:00:58.387Z,85.52
2019-03-31T12:05:01.657Z,85.53
2019-03-31T12:09:06.781Z,85.88
2019-03-31T12:13:10.260Z,84.70
2019-03-31T12:17:13.616Z,85.17
2019-03-31T12:21:16.874Z,84.99
2019-03-31T12:25:20.525Z,83.72
2019-03-31T12:29:24.275Z,84.68
2019-03-31T12:33:27.592Z,84.38
2019-03-31T12:37:41.780Z,82.74
2019-03-31T12:41:35.933Z,81.60
2019-03-31T12:45:42.846Z,80.61
2019-03-31T12:49:44.368Z,82.07
2019-03-31T12:53:50.977Z,81.13
2019-03-31T12:57:53.321Z,80.28
2019-03-31T13:01:57.241Z,79.80
2019-03-31T13:06:00.941Z,78.55
2019-03-31T13:10:06.471Z,79.18
2019-03-31T13:14:10.318Z,77.87
2019-03-31T13:18:13.942Z,77.75
2019-03-31T13:22:17.315Z,78.23
2019-03-31T13:26:20.662Z,75.62
2019-03-31T13:30:24.180Z,75.49
2019-03-31T13:34:28.940Z,73.44
2019-03-31T13:38:32.298Z,71.14
2019-03-31T13:42:35.853Z,70.15
2019-03-31T13:46:39.205Z,68.57
2019-03-31T13:50:42.489Z,65.69
2019-03-31T13:54:45.816Z,64.19
2019-03-31T13:58:52.349Z,64.11
2019-03-31T14:02:54.213Z,66.14
2019-03-31T14:06:57.484Z,64.51
2019-03-31T14:11:00.949Z,60.02
2019-03-31T14:15:18.153Z,58.85
2019-03-31T14:19:12.929Z,58.57
2019-03-31T14:23:14.581Z,60.25
2019-03-31T14:27:18.001Z,59.55
2019-03-31T14:31:21.751Z,60.43
2019-03-31T14:35:25.199Z,59.99
2019-03-31T14:39:28.614Z,58.16
2019-03-31T14:43:31.911Z,59.25
2019-03-31T14:47:38.881Z,57.30
2019-03-31T14:51:42.855Z,56.88
2019-03-31T14:55:48.610Z,55.68
2019-03-31T14:59:53.505Z,54.50
2019-03-31T15:03:57.079Z,49.92
2019-03-31T15:08:00.846Z,48.24
2019-03-31T15:12:05.074Z,45.31
2019-03-31T15:16:08.503Z,45.68
2019-03-31T15:20:11.922Z,46.90
2019-03-31T15:24:15.474Z,44.43
2019-03-31T15:28:18.796Z,41.01
2019-03-31T15:32:22.194Z,40.73
2019-03-31T15:36:25.517Z,41.41
2019-03-31T15:40:28.970Z,42.25
2019-03-31T15:44:32.392Z,43.10
2019-03-31T15:48:36.011Z,45.81
2019-03-31T15:52:39.553Z,47.88
2019-03-31T15:56:43.239Z,47.13
2019-03-31T16:00:46.664Z,47.68
2019-03-31T16:04:50.097Z,46.05
2019-03-31T16:08:52.565Z,47.53
2019-03-31T16:12:54.888Z,49.01
2019-03-31T16:16:57.120Z,50.63
2019-03-31T16:20:59.730Z,49.35
2019-03-31T16:25:04.928Z,51.18
2019-03-31T16:29:07.277Z,51.39
2019-03-31T16:33:09.491Z,52.58
2019-03-31T16:37:14.806Z,53.20
2019-03-31T16:41:17.073Z,55.15
2019-03-31T16:45:19.742Z,54.13
2019-03-31T16:49:22.362Z,55.01
2019-03-31T16:53:24.709Z,55.25
2019-03-31T16:57:28.170Z,55.68
2019-03-31T17:01:30.828Z,57.12
2019-03-31T17:05:33.049Z,57.38
2019-03-31T17:09:35.553Z,58.19
2019-03-31T17:13:37.750Z,58.13
2019-03-31T17:17:40.122Z,58.47
2019-03-31T17:21:44.263Z,59.63
2019-03-31T17:25:46.653Z,59.43
2019-03-31T17:29:48.877Z,59.64
2019-03-31T17:33:51.692Z,60.07
2019-03-31T17:37:53.895Z,61.33
2019-03-31T17:41:56.299Z,60.18
2019-03-31T17:45:58.808Z,60.72
2019-03-31T17:50:01.112Z,61.13
2019-03-31T17:54:06.341Z,61.34
2019-03-31T17:58:09.060Z,63.08
2019-03-31T18:02:11.813Z,62.72
2019-03-31T18:06:14.162Z,63.11
2019-03-31T18:10:21.135Z,63.84
2019-03-31T18:14:21.649Z,64.33
2019-03-31T18:18:23.884Z,64.68
2019-03-31T18:22:26.221Z,64.63
2019-03-31T18:26:28.667Z,64.75
2019-03-31T18:30:30.993Z,64.75
2019-03-31T18:34:33.210Z,64.91
2019-03-31T18:38:35.610Z,65.55
2019-03-31T18:42:37.932Z,65.46
2019-03-31T18:46:40.713Z,65.60
2019-03-31T18:50:42.909Z,65.60
2019-03-31T18:55:16.534Z,64.66
2019-03-31T18:59:46.924Z,66.12
2019-03-31T19:04:04.428Z,64.94
2019-03-31T19:08:24.235Z,65.65
2019-03-31T19:12:48.682Z,65.80
2019-03-31T19:17:19.116Z,65.08
2019-03-31T19:21:33.119Z,64.04
2019-03-31T19:25:57.176Z,64.01
2019-03-31T19:30:16.258Z,65.19
2019-03-31T19:34:38.977Z,64.65
2019-03-31T19:39:00.121Z,64.73
2019-03-31T19:43:36.567Z,64.72
2019-03-31T19:47:47.551Z,65.87
2019-03-31T19:52:24.914Z,65.30
2019-03-31T19:56:45.220Z,65.05
2019-03-31T20:01:12.635Z,66.33
2019-03-31T20:05:39.275Z,65.22
2019-03-31T20:09:46.372Z,65.92
2019-03-31T20:14:05.579Z,66.28
2019-03-31T20:18:25.502Z,66.89
2019-03-31T20:22:47.642Z,66.49
2019-03-31T20:27:08.450Z,66.76
2019-03-31T20:31:28.408Z,66.88
2019-03-31T20:36:04.704Z,67.53
2019-03-31T20:40:35.497Z,67.20
2019-03-31T20:44:37.705Z,68.28
2019-03-31T20:48:41.823Z,67.43
2019-03-31T20:52:44.008Z,67.16
2019-03-31T20:56:46.330Z,67.47
2019-03-31T21:00:48.588Z,67.68
2019-03-31T21:04:51.072Z,67.43
2019-03-31T21:08:53.353Z,67.62
2019-03-31T21:12:55.914Z,67.38
2019-03-31T21:16:58.231Z,67.86
2019-03-31T21:21:00.519Z,68.34
2019-03-31T21:25:02.716Z,68.69
2019-03-31T21:29:04.967Z,68.65
2019-03-31T21:33:07.153Z,68.93
2019-03-31T21:37:09.469Z,69.49
2019-03-31T21:41:14.160Z,69.91
2019-03-31T21:45:15.995Z,69.39
2019-03-31T21:49:18.291Z,69.66
2019-03-31T21:53:20.709Z,69.75
2019-03-31T21:57:22.925Z,70.40
2019-03-31T22:01:25.392Z,70.81
2019-03-31T22:05:27.574Z,71.43
2019-03-31T22:09:29.843Z,71.11
2019-03-31T22:13:32.036Z,72.04
2019-03-31T22:17:34.337Z,72.38
2019-03-31T22:21:36.525Z,72.31
2019-03-31T22:25:38.828Z,72.56
2019-03-31T22:29:41.007Z,72.54
2019-03-31T22:33:43.291Z,73.27
2019-03-31T22:37:45.491Z,73.36
2019-03-31T22:41:49.809Z,73.88
2019-03-31T22:45:52.202Z,75.00
2019-03-31T22:49:54.491Z,74.81
2019-03-31T22:53:57.141Z,74.76
2019-03-31T22:57:59.383Z,75.46
2019-03-31T23:02:01.748Z,74.91
2019-03-31T23:06:04.395Z,75.83
2019-03-31T23:10:06.733Z,75.61
2019-03-31T23:14:09.151Z,75.91
2019-03-31T23:18:11.335Z,76.02
2019-03-31T23:22:13.618Z,76.95
2019-03-31T23:26:16.079Z,76.95
2019-03-31T23:30:18.346Z,77.15
2019-03-31T23:34:20.569Z,77.70
2019-03-31T23:38:22.873Z,77.62
2019-03-31T23:42:26.770Z,78.42
2019-03-31T23:46:29.151Z,78.47
2019-03-31T23:50:31.342Z,78.15
2019-03-31T23:54:33.685Z,77.97
2019-03-31T23:58:35.899Z,79.62
